This is the latest recevied weather packets stored in our database for station/object W8MRL. If no packets are shown the sender has not sent any weather packets the latest 1 day(s).
| Time | Temp. | Humidity | Pressure | Rain* | Wind** | Luminosity | Snow |
|---|---|---|---|---|---|---|---|
| 1778087736 | 15° C | 60% | 1016.9 hPa | 0 mm | - | - | - |
| 1778085053 | 13.89° C | 64% | 1017 hPa | 0 mm | - | - | - |
| 1778081420 | 13.33° C | 66% | 1017.2 hPa | 0 mm | - | - | - |
| 1778077807 | 11.67° C | 71% | 1015.9 hPa | 0 mm | - | - | - |
| 1778076905 | 11.11° C | 77% | 1015.9 hPa | 0 mm | - | - | - |
| 1778072451 | 8.33° C | 85% | 1015.6 hPa | 0 mm | - | - | - |
| 1778069754 | 7.78° C | 89% | 1015 hPa | 0 mm | - | - | - |
| 1778062532 | 6.67° C | 91% | 1012.7 hPa | 0 mm | - | - | - |
| 1778061634 | 6.67° C | 91% | 1012.5 hPa | 0 mm | - | - | - |
| 1778060730 | 6.67° C | 92% | 1013.2 hPa | 0 mm | - | - | - |
| 1778058926 | 6.11° C | 92% | 1011.9 hPa | 0 mm | - | - | - |
| 1778058026 | 6.11° C | 92% | 1011.8 hPa | 0 mm | - | - | - |
| 1778056230 | 6.11° C | 92% | 1011.9 hPa | 0.51 mm | - | - | - |
| 1778054420 | 6.11° C | 92% | 1011.8 hPa | 1.78 mm | - | - | - |
| 1778052615 | 6.67° C | 93% | 1012 hPa | 1.52 mm | - | - | - |
| 1778051712 | 7.22° C | 94% | 1011.5 hPa | 1.02 mm | - | - | - |
| 1778049911 | 7.78° C | 95% | 1011.6 hPa | 1.78 mm | - | - | - |
| 1778048106 | 7.78° C | 95% | 1011.1 hPa | 4.06 mm | - | - | - |
| 1778046364 | 8.33° C | 95% | 1010.8 hPa | 6.1 mm | - | - | - |
| 1778045474 | 8.33° C | 95% | 1010.9 hPa | 6.6 mm | - | - | - |
| 1778044576 | 8.33° C | 95% | 1010.9 hPa | 7.11 mm | - | - | - |
| 1778043673 | 8.89° C | 95% | 1011.2 hPa | 6.1 mm | - | - | - |
| 1778041850 | 8.89° C | 95% | 1010.5 hPa | 6.1 mm | - | - | - |
| 1778040958 | 9.44° C | 95% | 1010.8 hPa | 5.08 mm | - | - | - |
| 1778039150 | 10° C | 95% | 1010.6 hPa | 1.78 mm | - | - | - |
* Rain latest hour (hover to see other rain measurements)
** Current wind speed in m/s (hover to see current wind gust speed)